Time;durP1;ratioP1;P1;durP2;ratioP2;P2;SDS_P1;SDS_P2;PMS_P1;PMS_P2;Temp;Humidity;BMP_temperature;BMP_pressure;BME280_temperature;BME280_humidity;BME280_pressure;Samples;Min_cycle;Max_cycle;Signal;HPM_P1;HPM_P2
2022/11/14 00:02:15;;;;;;;106.93;40.28;;;5.70;99.90;;;;;;4984928;28;20118;-86
2022/11/14 00:04:45;;;;;;;103.03;37.47;;;5.70;99.90;;;;;;4974769;28;20027;-85
2022/11/14 00:07:10;;;;;;;133.18;40.72;;;5.60;99.90;;;;;;4974923;28;20027;-85
2022/11/14 00:09:37;;;;;;;113.32;42.13;;;5.60;99.90;;;;;;4973978;28;20030;-86
2022/11/14 00:12:03;;;;;;;121.32;37.10;;;5.70;99.90;;;;;;4982303;28;20067;-86
2022/11/14 00:14:29;;;;;;;101.13;36.87;;;5.60;99.90;;;;;;4995796;28;20030;-85
2022/11/14 00:16:55;;;;;;;105.28;35.67;;;5.70;99.90;;;;;;4995848;28;20030;-86
2022/11/14 00:19:20;;;;;;;109.75;37.63;;;5.70;99.90;;;;;;4995014;28;20084;-84
2022/11/14 00:21:46;;;;;;;104.03;38.25;;;5.60;99.90;;;;;;4994920;28;20089;-87
2022/11/14 00:24:12;;;;;;;103.82;37.60;;;5.60;99.90;;;;;;4995334;28;20497;-87
2022/11/14 00:26:37;;;;;;;107.43;40.58;;;5.60;99.90;;;;;;4994712;28;20058;-86
2022/11/14 00:29:03;;;;;;;114.70;39.67;;;5.70;99.90;;;;;;4994922;28;20086;-85
2022/11/14 00:31:29;;;;;;;102.45;39.40;;;5.70;99.90;;;;;;4995297;28;20433;-85
2022/11/14 00:33:55;;;;;;;97.22;38.25;;;5.70;99.90;;;;;;4995640;28;20098;-86
2022/11/14 00:36:21;;;;;;;104.45;36.28;;;5.70;99.90;;;;;;4995884;28;20018;-85
2022/11/14 00:38:46;;;;;;;97.03;34.33;;;5.70;99.90;;;;;;4994815;28;20018;-85
2022/11/14 00:41:12;;;;;;;88.03;33.67;;;5.60;99.90;;;;;;4994074;28;20011;-86
2022/11/14 00:43:38;;;;;;;104.50;36.55;;;5.60;99.90;;;;;;4994046;28;20030;-86
2022/11/14 00:46:04;;;;;;;106.43;34.63;;;5.60;99.90;;;;;;5014416;28;20104;-86
2022/11/14 00:48:29;;;;;;;91.40;37.05;;;5.70;99.90;;;;;;4997645;28;20026;-86
2022/11/14 00:50:55;;;;;;;97.57;35.70;;;5.60;99.90;;;;;;5015398;28;20038;-87
2022/11/14 00:53:21;;;;;;;85.47;35.42;;;5.60;99.90;;;;;;5014809;28;20025;-85
2022/11/14 00:55:46;;;;;;;90.25;35.10;;;5.60;99.90;;;;;;4996628;28;20512;-85
2022/11/14 00:58:12;;;;;;;85.18;34.70;;;5.70;99.90;;;;;;4997148;28;20049;-87
2022/11/14 01:00:38;;;;;;;91.88;35.63;;;5.60;99.90;;;;;;4997174;28;20026;-88
2022/11/14 01:03:04;;;;;;;89.43;36.67;;;5.60;99.90;;;;;;5002113;28;20018;-85
2022/11/14 01:05:29;;;;;;;106.63;37.38;;;5.60;99.90;;;;;;4978063;28;20049;-85
2022/11/14 01:07:56;;;;;;;86.43;34.88;;;5.60;99.90;;;;;;4978269;28;20022;-84
2022/11/14 01:10:22;;;;;;;90.65;36.97;;;5.60;99.90;;;;;;4996169;28;20034;-84
2022/11/14 01:12:48;;;;;;;106.40;36.78;;;5.60;99.90;;;;;;4995092;28;20668;-87
2022/11/14 01:15:13;;;;;;;105.85;40.60;;;5.70;99.90;;;;;;4978149;28;20112;-88
2022/11/14 01:17:39;;;;;;;93.40;34.47;;;5.60;99.90;;;;;;4980265;28;20033;-82
2022/11/14 01:20:05;;;;;;;94.32;33.17;;;5.60;99.90;;;;;;4998565;23;20057;-65
2022/11/14 01:22:31;;;;;;;87.43;33.22;;;5.50;99.90;;;;;;4991671;28;20054;-61
2022/11/14 01:24:59;;;;;;;89.05;34.25;;;5.40;99.90;;;;;;4992520;28;20050;-63
2022/11/14 01:27:25;;;;;;;91.22;36.67;;;5.50;99.90;;;;;;4992474;28;20041;-62
2022/11/14 01:29:51;;;;;;;94.15;36.05;;;5.50;99.90;;;;;;4992723;28;20027;-60
2022/11/14 01:32:16;;;;;;;89.13;34.42;;;5.60;99.90;;;;;;4975099;28;20023;-61
2022/11/14 01:34:42;;;;;;;95.32;37.20;;;5.50;99.90;;;;;;4992734;28;20019;-64
2022/11/14 01:37:08;;;;;;;91.40;36.25;;;5.60;99.90;;;;;;4992201;28;20038;-65
2022/11/14 01:39:33;;;;;;;96.90;35.47;;;5.60;99.90;;;;;;4992052;28;20023;-64
2022/11/14 01:41:59;;;;;;;89.47;36.60;;;5.60;99.90;;;;;;4992316;28;20022;-66
2022/11/14 01:45:00;;;;;;;103.50;37.80;;;5.50;99.90;;;;;;4992222;28;20470;-62
2022/11/14 01:47:29;;;;;;;92.07;36.65;;;5.50;99.90;;;;;;4931878;29;20594;-65
2022/11/14 01:49:59;;;;;;;114.65;38.13;;;5.50;99.90;;;;;;4980840;28;20555;-62
2022/11/14 01:52:27;;;;;;;133.63;35.38;;;5.50;99.90;;;;;;4992065;28;20393;-61
2022/11/14 01:54:58;;;;;;;97.22;32.75;;;5.60;99.90;;;;;;4991938;28;20022;-60
2022/11/14 01:57:33;;;;;;;89.20;35.22;;;5.50;99.90;;;;;;4992171;28;20444;-61
2022/11/14 02:00:04;;;;;;;94.32;36.90;;;5.40;99.90;;;;;;4991873;28;20553;-63
2022/11/14 02:02:30;;;;;;;102.53;35.38;;;5.50;99.90;;;;;;4991781;28;20456;-64
2022/11/14 02:05:02;;;;;;;109.35;31.60;;;5.50;99.90;;;;;;4991836;28;20022;-63
2022/11/14 02:07:31;;;;;;;84.10;31.70;;;5.40;99.90;;;;;;4973846;28;20401;-64
2022/11/14 02:10:00;;;;;;;98.68;28.27;;;5.40;99.90;;;;;;4991906;28;20026;-64
2022/11/14 02:12:25;;;;;;;101.93;31.13;;;5.30;99.90;;;;;;4991698;28;20495;-63
2022/11/14 02:14:54;;;;;;;89.22;31.08;;;5.30;99.90;;;;;;4992250;28;20121;-65
2022/11/14 02:17:20;;;;;;;87.75;31.13;;;5.20;99.90;;;;;;4978921;28;20031;-66
2022/11/14 02:19:52;;;;;;;110.32;32.60;;;5.30;99.90;;;;;;4972116;28;20199;-64
2022/11/14 02:22:17;;;;;;;105.85;33.67;;;5.20;99.90;;;;;;4971594;28;20042;-63
2022/11/14 02:24:44;;;;;;;94.63;32.40;;;5.20;99.90;;;;;;4972290;28;20031;-64
2022/11/14 02:27:12;;;;;;;87.32;31.38;;;5.20;99.90;;;;;;4972085;28;20031;-64
2022/11/14 02:29:38;;;;;;;93.30;31.85;;;5.30;99.90;;;;;;4972231;28;20026;-61
2022/11/14 02:32:04;;;;;;;92.43;35.25;;;5.30;99.90;;;;;;4971793;28;20086;-61
2022/11/14 02:34:31;;;;;;;88.68;33.13;;;5.30;99.90;;;;;;4970868;28;20121;-63
2022/11/14 02:36:57;;;;;;;82.80;33.45;;;5.40;99.90;;;;;;4971819;28;20034;-65
2022/11/14 02:39:23;;;;;;;82.57;32.80;;;5.40;99.90;;;;;;4971801;28;20031;-62
2022/11/14 02:41:50;;;;;;;79.18;31.90;;;5.40;99.90;;;;;;4971887;28;20031;-66
2022/11/14 02:44:16;;;;;;;70.88;31.13;;;5.40;99.90;;;;;;4971791;28;20034;-62
2022/11/14 02:46:41;;;;;;;84.18;31.88;;;5.40;99.90;;;;;;4971747;28;20034;-63
2022/11/14 02:49:07;;;;;;;77.65;30.75;;;5.50;99.90;;;;;;4971774;28;20501;-63
2022/11/14 02:51:33;;;;;;;85.13;30.10;;;5.50;99.90;;;;;;4971650;28;20030;-62
2022/11/14 02:53:58;;;;;;;78.95;30.77;;;5.40;99.90;;;;;;4971572;28;20048;-59
2022/11/14 02:56:24;;;;;;;67.85;28.20;;;5.40;99.90;;;;;;4971735;28;20723;-61
2022/11/14 02:58:50;;;;;;;73.90;28.55;;;5.40;99.90;;;;;;4954252;28;20517;-62
2022/11/14 03:01:15;;;;;;;78.05;29.70;;;5.40;99.90;;;;;;4971530;28;20031;-67
2022/11/14 03:03:41;;;;;;;78.43;28.25;;;5.40;99.90;;;;;;4971458;28;20090;-63
2022/11/14 03:06:06;;;;;;;85.72;27.55;;;5.40;99.90;;;;;;4970890;28;20486;-64
2022/11/14 03:08:32;;;;;;;69.10;27.90;;;5.30;99.90;;;;;;4971468;28;20058;-67
2022/11/14 03:11:09;;;;;;;80.65;30.80;;;5.30;99.90;;;;;;4971252;28;20046;-64
2022/11/14 03:13:35;;;;;;;72.85;32.03;;;5.30;99.90;;;;;;4971265;28;20030;-62
2022/11/14 03:16:08;;;;;;;77.50;29.58;;;5.30;99.90;;;;;;4972822;28;20035;-62
2022/11/14 03:18:34;;;;;;;71.35;28.45;;;5.40;99.90;;;;;;4990394;28;20022;-61
2022/11/14 03:21:09;;;;;;;69.32;28.75;;;5.40;99.90;;;;;;4990597;28;20050;-61
2022/11/14 03:23:35;;;;;;;71.53;29.75;;;5.40;99.90;;;;;;4990255;28;20524;-61
2022/11/14 03:26:02;;;;;;;103.60;30.13;;;5.40;99.90;;;;;;4990615;28;20114;-62
2022/11/14 03:28:28;;;;;;;75.80;28.65;;;5.40;99.90;;;;;;4990512;28;20465;-62
2022/11/14 03:30:54;;;;;;;75.40;27.52;;;5.40;99.90;;;;;;4990632;28;20097;-63
2022/11/14 03:33:19;;;;;;;71.40;26.98;;;5.40;99.90;;;;;;4990573;28;20033;-62
2022/11/14 03:35:45;;;;;;;75.20;26.45;;;5.40;99.90;;;;;;4990545;28;20386;-64
2022/11/14 03:38:11;;;;;;;64.75;25.92;;;5.40;99.90;;;;;;4972923;28;20477;-68
2022/11/14 03:40:40;;;;;;;87.05;27.20;;;5.30;99.90;;;;;;4990744;28;20029;-63
2022/11/14 03:43:05;;;;;;;98.03;25.35;;;5.20;99.90;;;;;;4990485;28;20058;-61
2022/11/14 03:45:31;;;;;;;76.85;28.05;;;5.20;99.90;;;;;;4993009;28;20076;-62
2022/11/14 03:47:57;;;;;;;66.47;27.67;;;5.20;99.90;;;;;;4994217;28;20038;-61
2022/11/14 03:50:22;;;;;;;72.45;29.13;;;5.20;99.90;;;;;;4994306;28;20041;-66
2022/11/14 03:52:49;;;;;;;102.00;26.48;;;5.20;99.90;;;;;;4994140;28;20034;-64
2022/11/14 03:55:14;;;;;;;72.43;26.45;;;5.20;99.90;;;;;;4994235;28;20113;-64
2022/11/14 03:57:40;;;;;;;82.80;26.67;;;5.20;99.90;;;;;;4994214;28;20157;-61
2022/11/14 04:00:07;;;;;;;76.82;29.42;;;5.20;99.90;;;;;;4994316;28;20045;-65
2022/11/14 04:02:33;;;;;;;68.97;28.85;;;5.20;99.90;;;;;;4993985;28;20030;-64
2022/11/14 04:04:59;;;;;;;71.95;28.02;;;5.30;99.90;;;;;;4993586;28;20109;-66
2022/11/14 04:07:24;;;;;;;67.32;27.63;;;5.30;99.90;;;;;;4994065;28;20023;-61
2022/11/14 04:09:50;;;;;;;64.75;26.48;;;5.30;99.90;;;;;;4993692;28;20085;-61
2022/11/14 04:12:17;;;;;;;61.45;27.08;;;5.30;99.90;;;;;;4993773;28;20385;-62
2022/11/14 04:14:43;;;;;;;67.10;26.75;;;5.30;99.90;;;;;;4994064;28;20019;-64
2022/11/14 04:17:09;;;;;;;63.88;27.33;;;5.30;99.90;;;;;;4983279;28;20055;-66
2022/11/14 04:19:35;;;;;;;67.68;26.90;;;5.30;99.90;;;;;;4956740;28;20062;-60
2022/11/14 04:22:01;;;;;;;61.05;28.58;;;5.40;99.90;;;;;;4974063;28;20220;-60
2022/11/14 04:24:27;;;;;;;78.38;27.90;;;5.40;99.90;;;;;;4974153;28;20118;-63
2022/11/14 04:26:53;;;;;;;80.40;26.75;;;5.40;99.90;;;;;;4973869;28;20027;-60
2022/11/14 04:29:18;;;;;;;58.47;24.88;;;5.30;99.90;;;;;;4956702;28;20073;-59
2022/11/14 04:31:45;;;;;;;59.42;26.05;;;5.30;99.90;;;;;;4973833;28;20498;-63
2022/11/14 04:34:11;;;;;;;55.97;24.80;;;5.30;99.90;;;;;;4973853;28;20070;-65
2022/11/14 04:36:36;;;;;;;63.55;26.27;;;5.30;99.90;;;;;;4974116;28;20143;-64
2022/11/14 04:39:02;;;;;;;54.35;25.08;;;5.30;99.90;;;;;;4973864;28;20074;-61
2022/11/14 04:41:28;;;;;;;57.80;25.15;;;5.30;99.90;;;;;;4973674;28;20475;-61
2022/11/14 04:43:53;;;;;;;63.75;26.83;;;5.30;99.90;;;;;;4973980;28;20031;-60
2022/11/14 04:46:19;;;;;;;56.65;25.35;;;5.40;99.90;;;;;;4956493;28;20037;-59
2022/11/14 04:48:45;;;;;;;63.67;23.77;;;5.40;99.90;;;;;;4973907;28;20387;-61
2022/11/14 04:51:10;;;;;;;59.97;22.85;;;5.40;99.90;;;;;;4973712;28;20038;-65
2022/11/14 04:53:36;;;;;;;58.08;24.33;;;5.30;99.90;;;;;;4973852;28;20406;-64
2022/11/14 04:56:02;;;;;;;58.40;24.95;;;5.30;99.90;;;;;;4972611;28;20098;-64
2022/11/14 04:58:28;;;;;;;56.85;25.08;;;5.30;99.90;;;;;;4973821;28;20477;-61
2022/11/14 05:00:56;;;;;;;66.93;24.73;;;5.30;99.90;;;;;;4973707;28;20066;-63
2022/11/14 05:03:22;;;;;;;55.35;24.15;;;5.30;99.90;;;;;;4956311;28;20030;-62
2022/11/14 05:05:48;;;;;;;59.05;24.90;;;5.30;99.90;;;;;;4973677;28;20039;-60
2022/11/14 05:08:14;;;;;;;59.25;26.70;;;5.30;99.90;;;;;;4973389;28;20037;-61
2022/11/14 05:10:43;;;;;;;60.10;25.08;;;5.30;99.90;;;;;;4955783;28;20133;-62
2022/11/14 05:13:10;;;;;;;56.83;24.30;;;5.20;99.90;;;;;;4973477;28;20101;-59
2022/11/14 05:15:36;;;;;;;53.58;22.40;;;5.20;99.90;;;;;;4976597;28;20457;-64
2022/11/14 05:18:02;;;;;;;50.47;23.67;;;5.20;99.90;;;;;;4992439;28;20062;-63
2022/11/14 05:20:28;;;;;;;57.38;24.05;;;5.20;99.90;;;;;;4974416;28;20038;-63
2022/11/14 05:22:55;;;;;;;53.17;24.13;;;5.20;99.90;;;;;;4992084;28;20426;-65
2022/11/14 05:25:22;;;;;;;62.63;22.40;;;5.20;99.90;;;;;;4989540;28;20029;-60
2022/11/14 05:27:48;;;;;;;47.47;22.02;;;5.20;99.90;;;;;;4992236;28;20034;-68
2022/11/14 05:30:14;;;;;;;62.05;23.50;;;5.20;99.90;;;;;;4991629;28;20034;-64
2022/11/14 05:32:40;;;;;;;65.18;21.60;;;5.20;99.90;;;;;;4989256;28;20100;-59
2022/11/14 05:35:06;;;;;;;47.83;21.05;;;5.10;99.90;;;;;;4992143;28;20026;-62
2022/11/14 05:37:33;;;;;;;50.28;21.83;;;5.10;99.90;;;;;;4991650;28;20049;-61
2022/11/14 05:39:59;;;;;;;53.92;22.65;;;5.20;99.90;;;;;;4989156;28;20899;-61
2022/11/14 05:42:26;;;;;;;57.50;23.42;;;5.10;99.90;;;;;;4990357;28;20039;-60
2022/11/14 05:44:52;;;;;;;;;;;5.10;99.90;;;;;;4992273;28;20370;-65
2022/11/14 05:47:18;;;;;;;49.13;20.70;;;5.10;99.90;;;;;;4992100;28;19916;-66
2022/11/14 05:49:44;;;;;;;51.20;21.30;;;5.10;99.90;;;;;;4991694;28;20504;-66
2022/11/14 05:52:09;;;;;;;56.70;21.85;;;5.20;99.90;;;;;;4991412;28;20034;-65
2022/11/14 05:54:35;;;;;;;50.92;22.38;;;5.20;99.90;;;;;;4991432;28;20485;-65
2022/11/14 05:57:01;;;;;;;50.85;21.27;;;5.20;99.90;;;;;;4973723;28;20026;-64
2022/11/14 05:59:27;;;;;;;48.22;21.02;;;5.20;99.90;;;;;;4991330;28;20046;-65
2022/11/14 06:01:53;;;;;;;57.72;20.67;;;5.20;99.90;;;;;;4990606;28;20054;-62
2022/11/14 06:04:18;;;;;;;56.17;20.73;;;5.20;99.90;;;;;;4991436;28;20027;-64
2022/11/14 06:06:44;;;;;;;53.75;21.70;;;5.10;99.90;;;;;;4991410;28;20030;-64
2022/11/14 06:09:10;;;;;;;79.45;21.15;;;5.20;99.90;;;;;;4991351;28;20069;-60
2022/11/14 06:11:35;;;;;;;43.38;19.92;;;5.10;99.90;;;;;;4991482;28;20089;-62
2022/11/14 06:14:02;;;;;;;52.00;21.38;;;5.10;99.90;;;;;;4991703;28;20070;-60
2022/11/14 06:16:27;;;;;;;46.67;20.42;;;5.10;99.90;;;;;;4991746;28;20034;-65
2022/11/14 06:18:54;;;;;;;48.00;20.50;;;5.10;99.90;;;;;;4978319;28;20070;-65
2022/11/14 06:21:21;;;;;;;62.43;21.40;;;5.20;99.90;;;;;;4972055;28;20447;-65
2022/11/14 06:23:48;;;;;;;48.88;20.73;;;5.00;99.90;;;;;;4972078;28;20035;-65
2022/11/14 06:26:20;;;;;;;50.92;21.30;;;5.10;99.90;;;;;;4972182;28;20050;-62
2022/11/14 06:28:48;;;;;;;64.35;22.20;;;5.20;99.90;;;;;;4972255;28;20054;-63
2022/11/14 06:31:14;;;;;;;74.40;20.27;;;5.10;99.90;;;;;;4971705;28;20065;-61
2022/11/14 06:33:39;;;;;;;66.22;20.85;;;5.10;99.90;;;;;;4971778;28;20474;-61
2022/11/14 06:36:07;;;;;;;49.65;20.83;;;5.00;99.90;;;;;;4971902;28;20041;-61
2022/11/14 06:38:35;;;;;;;44.95;20.85;;;5.10;99.90;;;;;;4971749;28;20054;-62
2022/11/14 06:41:07;;;;;;;64.88;20.95;;;5.00;99.90;;;;;;4970434;28;20031;-59
2022/11/14 06:43:34;;;;;;;46.83;22.95;;;5.00;99.90;;;;;;4971687;28;20030;-65
2022/11/14 06:46:01;;;;;;;72.75;24.20;;;5.00;99.90;;;;;;4970348;28;20110;-61
2022/11/14 06:48:27;;;;;;;47.42;22.13;;;5.00;99.90;;;;;;4971557;28;20039;-64
2022/11/14 06:50:54;;;;;;;59.92;23.75;;;4.90;99.90;;;;;;4971561;28;20050;-67
2022/11/14 06:53:20;;;;;;;48.22;23.92;;;5.10;99.90;;;;;;4971693;28;20027;-63
2022/11/14 06:55:59;;;;;;;69.20;22.67;;;5.10;99.90;;;;;;4971415;28;20113;-63
2022/11/14 06:58:27;;;;;;;57.97;23.67;;;4.90;99.90;;;;;;4971004;28;20035;-64
2022/11/14 07:00:53;;;;;;;65.47;22.08;;;5.00;99.90;;;;;;4969962;28;20029;-65
2022/11/14 07:03:18;;;;;;;57.28;23.13;;;5.00;99.90;;;;;;4969580;28;20114;-62
2022/11/14 07:05:44;;;;;;;55.40;21.58;;;5.00;99.90;;;;;;4970099;28;20471;-63
2022/11/14 07:08:10;;;;;;;50.15;21.58;;;5.00;99.90;;;;;;4970389;28;20482;-62
2022/11/14 07:10:35;;;;;;;50.17;21.63;;;4.90;99.90;;;;;;4953998;28;20038;-60
2022/11/14 07:13:01;;;;;;;51.90;22.15;;;5.00;99.90;;;;;;4971312;28;20030;-61
2022/11/14 07:15:27;;;;;;;81.10;21.42;;;5.10;99.90;;;;;;4971487;28;20479;-61
2022/11/14 07:17:52;;;;;;;58.75;20.75;;;5.00;99.90;;;;;;4972494;28;20050;-62
2022/11/14 07:20:18;;;;;;;47.35;21.55;;;5.00;99.90;;;;;;4990202;28;20077;-62
2022/11/14 07:22:47;;;;;;;44.38;20.48;;;5.00;99.90;;;;;;4990881;28;20033;-66
2022/11/14 07:25:13;;;;;;;50.30;22.17;;;5.00;99.90;;;;;;4973148;28;20022;-65
2022/11/14 07:27:39;;;;;;;72.63;23.92;;;5.10;99.90;;;;;;4990325;28;20085;-64
2022/11/14 07:30:05;;;;;;;53.17;24.70;;;5.10;99.90;;;;;;4990380;28;20056;-66
2022/11/14 07:32:31;;;;;;;51.53;23.30;;;5.20;99.90;;;;;;4990404;28;20081;-66
2022/11/14 07:34:56;;;;;;;53.58;24.42;;;5.20;99.90;;;;;;4990504;28;20265;-69
2022/11/14 07:37:23;;;;;;;57.17;23.90;;;5.30;99.90;;;;;;4972935;28;20034;-65
2022/11/14 07:39:48;;;;;;;54.22;21.67;;;5.30;99.90;;;;;;4990707;28;20038;-67
2022/11/14 07:42:14;;;;;;;56.17;24.08;;;5.30;99.90;;;;;;4990279;28;20048;-67
2022/11/14 07:44:40;;;;;;;52.05;21.77;;;5.40;99.90;;;;;;4990388;28;20027;-65
2022/11/14 07:47:05;;;;;;;43.33;22.00;;;5.40;99.90;;;;;;4990472;28;20074;-64
2022/11/14 07:49:31;;;;;;;46.35;22.60;;;5.40;99.90;;;;;;4990781;28;20022;-66
2022/11/14 07:51:57;;;;;;;50.97;21.70;;;5.50;99.90;;;;;;4990528;28;20041;-63
2022/11/14 07:54:22;;;;;;;54.08;23.90;;;5.50;99.90;;;;;;4990511;28;20612;-62
2022/11/14 07:56:48;;;;;;;73.22;22.85;;;5.60;99.90;;;;;;4990284;28;20549;-62
2022/11/14 07:59:13;;;;;;;51.92;25.00;;;5.60;99.90;;;;;;4990163;28;20027;-63
2022/11/14 08:01:39;;;;;;;54.30;22.98;;;5.60;99.90;;;;;;4990129;28;20023;-63
2022/11/14 08:04:05;;;;;;;46.50;22.92;;;5.60;99.90;;;;;;4990056;28;20056;-64
2022/11/14 08:06:30;;;;;;;52.42;21.00;;;5.60;99.90;;;;;;4990249;28;20409;-63
2022/11/14 08:08:56;;;;;;;49.90;23.83;;;5.50;99.90;;;;;;4990180;28;20034;-65
2022/11/14 08:11:46;;;;;;;46.67;22.58;;;5.50;99.90;;;;;;4990010;28;20069;-63
2022/11/14 08:14:07;;;;;;;50.88;24.33;;;5.60;99.90;;;;;;4990120;28;20062;-66
2022/11/14 08:16:33;;;;;;;58.22;22.17;;;5.70;99.90;;;;;;4990209;28;20077;-64
2022/11/14 08:18:59;;;;;;;49.50;23.42;;;5.70;99.90;;;;;;4990139;28;20516;-65
2022/11/14 08:21:24;;;;;;;44.65;20.25;;;5.70;99.90;;;;;;4989913;28;20572;-67
2022/11/14 08:23:50;;;;;;;46.10;21.90;;;5.70;99.90;;;;;;4990279;28;20478;-63
2022/11/14 08:26:16;;;;;;;57.10;20.63;;;5.80;99.90;;;;;;4990018;28;20105;-67
2022/11/14 08:28:41;;;;;;;41.15;20.23;;;5.80;99.90;;;;;;4989935;28;20026;-64
2022/11/14 08:31:09;;;;;;;42.47;21.55;;;5.70;99.90;;;;;;4990414;28;20065;-63
2022/11/14 08:33:34;;;;;;;36.65;19.40;;;5.80;99.90;;;;;;4993822;28;20037;-63
2022/11/14 08:36:05;;;;;;;37.97;18.90;;;5.70;99.90;;;;;;4993907;28;20035;-67
2022/11/14 08:38:32;;;;;;;43.40;19.60;;;5.60;99.90;;;;;;4993497;28;20085;-66
2022/11/14 08:40:59;;;;;;;38.88;19.65;;;5.60;99.90;;;;;;4976035;28;20397;-64
2022/11/14 08:43:24;;;;;;;41.10;19.70;;;5.80;99.90;;;;;;4993575;28;20105;-65
2022/11/14 08:45:50;;;;;;;41.97;19.33;;;5.80;99.90;;;;;;4993430;28;20141;-65
2022/11/14 08:48:16;;;;;;;42.42;19.92;;;5.80;99.90;;;;;;4993652;28;20018;-65
2022/11/14 08:50:42;;;;;;;36.80;17.60;;;5.70;99.90;;;;;;4993335;28;20580;-65
2022/11/14 08:53:07;;;;;;;38.22;18.02;;;5.60;99.90;;;;;;4993323;28;20034;-66
2022/11/14 08:55:33;;;;;;;36.50;19.15;;;5.50;99.90;;;;;;4993062;28;20038;-63
2022/11/14 08:57:59;;;;;;;47.78;20.98;;;5.60;99.90;;;;;;4993397;28;20552;-62
2022/11/14 09:00:25;;;;;;;42.33;20.42;;;5.80;99.90;;;;;;4992963;28;20041;-62
2022/11/14 09:02:50;;;;;;;49.60;22.65;;;5.90;99.90;;;;;;4993028;28;20035;-62
2022/11/14 09:05:16;;;;;;;45.85;20.42;;;5.80;99.90;;;;;;4992988;28;20058;-63
2022/11/14 09:07:42;;;;;;;43.67;21.95;;;5.90;99.90;;;;;;4992904;28;20030;-62
2022/11/14 09:10:08;;;;;;;42.50;22.13;;;6.10;99.90;;;;;;4992799;28;20209;-64
2022/11/14 09:12:34;;;;;;;47.67;21.88;;;6.20;99.90;;;;;;4975425;28;20113;-62
2022/11/14 09:15:00;;;;;;;45.70;22.00;;;6.20;99.90;;;;;;4993087;28;20478;-62
2022/11/14 09:17:25;;;;;;;46.08;21.92;;;6.20;99.90;;;;;;4991702;28;20139;-64
2022/11/14 09:19:51;;;;;;;44.30;22.67;;;6.20;99.90;;;;;;4973167;28;20129;-63
2022/11/14 09:22:17;;;;;;;47.33;23.10;;;6.20;99.90;;;;;;4973316;28;20354;-64
2022/11/14 09:24:46;;;;;;;49.03;24.52;;;6.30;99.90;;;;;;4972924;28;20042;-66
2022/11/14 09:27:12;;;;;;;51.53;24.15;;;6.30;99.90;;;;;;4973216;28;20026;-66
2022/11/14 09:29:38;;;;;;;51.10;24.45;;;6.30;99.90;;;;;;4973354;28;20038;-65
2022/11/14 09:32:04;;;;;;;54.15;25.95;;;6.40;99.90;;;;;;4973062;28;20042;-67
2022/11/14 09:34:29;;;;;;;52.67;25.77;;;6.40;99.90;;;;;;4973079;28;20534;-66
2022/11/14 09:36:55;;;;;;;51.78;26.15;;;6.40;99.90;;;;;;4972909;28;20549;-65
2022/11/14 09:39:21;;;;;;;53.10;25.98;;;6.30;99.90;;;;;;4972622;28;20114;-64
2022/11/14 09:42:12;;;;;;;48.30;26.13;;;6.30;99.90;;;;;;4972565;28;20031;-66
2022/11/14 09:44:55;;;;;;;52.00;25.88;;;6.30;99.90;;;;;;4973104;28;20086;-63
2022/11/14 09:47:38;;;;;;;53.47;26.50;;;6.30;99.90;;;;;;4988643;28;20131;-64
2022/11/14 09:50:29;;;;;;;52.72;26.13;;;6.30;99.90;;;;;;4992342;28;20022;-67
2022/11/14 09:52:57;;;;;;;58.15;27.98;;;6.50;99.90;;;;;;4965813;28;20046;-63
2022/11/14 09:55:33;;;;;;;58.70;27.13;;;6.50;99.90;;;;;;4972874;28;20027;-63
2022/11/14 09:58:01;;;;;;;65.45;29.40;;;6.50;99.90;;;;;;4972849;28;20046;-67
2022/11/14 10:00:38;;;;;;;56.15;27.02;;;6.50;99.90;;;;;;4972527;28;20482;-63
2022/11/14 10:03:32;;;;;;;57.35;29.05;;;6.60;99.90;;;;;;4972468;28;20034;-65
2022/11/14 10:06:23;;;;;;;58.53;29.35;;;6.60;99.90;;;;;;4972457;28;20165;-65
2022/11/14 10:09:07;;;;;;;54.63;28.83;;;6.60;99.90;;;;;;4972589;28;20027;-66
2022/11/14 10:11:46;;;;;;;63.20;29.55;;;6.70;99.90;;;;;;4972392;28;20117;-65
2022/11/14 10:14:21;;;;;;;63.92;30.45;;;6.90;99.90;;;;;;4972336;28;20102;-64
2022/11/14 10:17:16;;;;;;;68.55;32.95;;;6.90;99.90;;;;;;4971986;28;20026;-62
2022/11/14 10:20:09;;;;;;;64.60;31.95;;;7.00;99.90;;;;;;4905992;28;20044;-66
2022/11/14 10:22:48;;;;;;;63.97;30.65;;;7.00;99.90;;;;;;4972190;28;20696;-64
2022/11/14 10:25:29;;;;;;;59.92;29.20;;;7.10;99.90;;;;;;4972062;28;20030;-65
2022/11/14 10:28:27;;;;;;;57.70;28.67;;;7.10;99.90;;;;;;4972170;28;20113;-67
2022/11/14 10:31:19;;;;;;;57.10;29.70;;;7.20;99.90;;;;;;4972379;28;20065;-63
2022/11/14 10:34:13;;;;;;;58.70;27.40;;;7.20;99.90;;;;;;4972229;28;20026;-65
2022/11/14 10:36:48;;;;;;;54.30;27.70;;;7.30;99.90;;;;;;4972003;28;20043;-66
2022/11/14 10:39:23;;;;;;;52.85;29.98;;;7.30;99.90;;;;;;4972012;28;20023;-65
2022/11/14 10:41:55;;;;;;;51.78;27.63;;;7.20;99.90;;;;;;4971935;28;20041;-62
2022/11/14 10:44:28;;;;;;;48.50;26.50;;;7.30;99.90;;;;;;4971930;28;20034;-65
2022/11/14 10:47:00;;;;;;;46.65;25.20;;;7.30;99.90;;;;;;4971770;28;20033;-65
2022/11/14 10:49:31;;;;;;;47.38;26.88;;;7.30;99.90;;;;;;4971999;28;20058;-65
2022/11/14 10:52:00;;;;;;;52.83;26.50;;;7.30;99.90;;;;;;4971833;28;20039;-67
2022/11/14 10:54:41;;;;;;;51.85;26.88;;;7.50;99.90;;;;;;4971026;28;20031;-64
2022/11/14 10:57:15;;;;;;;45.42;24.20;;;7.50;99.90;;;;;;4971618;28;20053;-66
2022/11/14 10:59:42;;;;;;;42.15;21.83;;;7.50;99.90;;;;;;4971764;28;20482;-65
2022/11/14 11:02:08;;;;;;;39.25;23.67;;;7.50;99.90;;;;;;4971396;28;20019;-66
2022/11/14 11:04:38;;;;;;;39.57;23.60;;;7.30;99.90;;;;;;4971413;28;20475;-62
2022/11/14 11:07:06;;;;;;;42.42;22.80;;;7.20;99.90;;;;;;4954106;28;20281;-63
2022/11/14 11:12:44;;;;;;;44.75;24.70;;;7.20;99.90;;;;;;4971321;28;20098;-66
2022/11/14 11:15:29;;;;;;;44.67;25.65;;;7.20;99.90;;;;;;4971221;28;20050;-63
2022/11/14 11:18:22;;;;;;;46.13;25.70;;;7.30;99.90;;;;;;4971116;28;20082;-65
2022/11/14 11:21:00;;;;;;;46.40;25.67;;;7.30;99.90;;;;;;4970953;28;20054;-63
2022/11/14 11:23:27;;;;;;;46.90;25.25;;;7.30;99.90;;;;;;4971031;28;20034;-68
2022/11/14 11:26:14;;;;;;;44.15;25.58;;;7.30;99.90;;;;;;4953949;28;20062;-62
2022/11/14 11:28:40;;;;;;;44.47;23.87;;;7.30;99.90;;;;;;4971282;28;20354;-64
2022/11/14 11:31:08;;;;;;;52.38;26.75;;;7.40;99.90;;;;;;4971087;28;20045;-66
2022/11/14 11:33:36;;;;;;;48.83;27.85;;;7.40;99.90;;;;;;4971129;28;20035;-66
2022/11/14 11:36:04;;;;;;;46.85;26.60;;;7.40;99.90;;;;;;4937842;28;20027;-62
2022/11/14 11:38:32;;;;;;;58.20;29.90;;;7.40;99.90;;;;;;4970896;28;20470;-66
2022/11/14 11:41:26;;;;;;;52.58;29.20;;;7.50;99.90;;;;;;4971008;28;20033;-61
2022/11/14 11:43:59;;;;;;;49.05;28.63;;;7.60;99.90;;;;;;4970799;28;20113;-62
2022/11/14 11:46:45;;;;;;;53.22;29.05;;;7.50;99.90;;;;;;4970723;28;20054;-61
2022/11/14 11:49:23;;;;;;;49.30;27.95;;;7.60;99.90;;;;;;4953107;28;20027;-61
2022/11/14 11:51:51;;;;;;;;;;;7.50;99.90;;;;;;4970986;28;20058;-61
2022/11/14 11:54:27;;;;;;;56.92;31.58;;;7.60;99.90;;;;;;4970671;28;19953;-61
2022/11/14 11:56:59;;;;;;;57.67;32.10;;;7.70;99.90;;;;;;4970368;28;20139;-61
2022/11/14 11:59:33;;;;;;;56.78;30.70;;;7.70;99.90;;;;;;4970948;28;20221;-62
2022/11/14 12:02:20;;;;;;;54.15;30.95;;;7.80;99.90;;;;;;4970827;28;20030;-62
2022/11/14 12:04:45;;;;;;;52.40;29.60;;;7.90;99.90;;;;;;4970607;28;20434;-61
2022/11/14 12:07:14;;;;;;;51.63;29.77;;;7.90;99.90;;;;;;4974233;28;20110;-60
2022/11/14 12:09:40;;;;;;;56.25;31.38;;;7.90;99.90;;;;;;4974396;28;20019;-56
2022/11/14 12:12:30;;;;;;;54.13;31.17;;;8.00;99.90;;;;;;4974289;28;20555;-57
2022/11/14 12:15:21;;;;;;;50.53;28.73;;;8.00;99.90;;;;;;4974336;28;20031;-59
2022/11/14 12:18:13;;;;;;;46.55;27.48;;;8.00;99.90;;;;;;4974120;28;20030;-57
2022/11/14 12:20:48;;;;;;;46.65;29.65;;;8.00;99.90;;;;;;4973871;28;20054;-59
2022/11/14 12:23:25;;;;;;;45.92;27.15;;;8.10;99.90;;;;;;4974220;28;20070;-60
2022/11/14 12:26:03;;;;;;;46.53;27.33;;;8.10;99.90;;;;;;4974165;28;20105;-62
2022/11/14 12:28:28;;;;;;;46.60;28.45;;;8.00;99.90;;;;;;4974069;28;20076;-60
2022/11/14 12:31:00;;;;;;;45.63;26.40;;;8.00;99.90;;;;;;4974091;28;20517;-58
2022/11/14 12:33:28;;;;;;;46.35;28.50;;;8.00;99.90;;;;;;4974282;28;20078;-60
2022/11/14 12:36:08;;;;;;;49.10;26.73;;;8.00;99.90;;;;;;4973912;28;20387;-57
2022/11/14 12:38:46;;;;;;;49.30;29.30;;;8.50;99.90;;;;;;4956548;28;20114;-56
2022/11/14 12:41:23;;;;;;;46.33;28.10;;;8.30;99.90;;;;;;4974144;28;20506;-56
2022/11/14 12:43:49;;;;;;;119.10;40.33;;;8.40;99.90;;;;;;4974224;28;20038;-57
2022/11/14 12:46:15;;;;;;;49.92;29.70;;;8.60;99.90;;;;;;4974344;28;20431;-55
2022/11/14 12:48:42;;;;;;;48.42;29.30;;;9.00;99.90;;;;;;4973845;28;20037;-56